createdAt,value
2018-02-21T00:01:49.153Z,29.67
2018-02-21T00:04:17.629Z,35.35
2018-02-21T00:06:46.073Z,26.92
2018-02-21T00:09:14.575Z,29.55
2018-02-21T00:11:43.202Z,28.17
2018-02-21T00:14:12.247Z,30.40
2018-02-21T00:16:40.798Z,29.58
2018-02-21T00:19:09.380Z,26.17
2018-02-21T00:21:37.986Z,26.20
2018-02-21T00:24:06.610Z,25.23
2018-02-21T00:26:35.170Z,25.92
2018-02-21T00:29:03.735Z,29.80
2018-02-21T00:31:32.803Z,25.35
2018-02-21T00:34:01.304Z,20.35
2018-02-21T00:36:29.788Z,17.17
2018-02-21T00:38:58.404Z,21.42
2018-02-21T00:41:26.852Z,22.23
2018-02-21T00:43:55.327Z,22.62
2018-02-21T00:46:24.505Z,25.90
2018-02-21T00:48:53.016Z,24.90
2018-02-21T00:51:21.449Z,23.15
2018-02-21T00:53:50.046Z,23.90
2018-02-21T00:56:18.508Z,27.33
2018-02-21T00:58:46.945Z,19.83
2018-02-21T01:01:16.113Z,20.80
2018-02-21T01:03:44.641Z,27.48
2018-02-21T01:06:13.602Z,26.45
2018-02-21T01:08:42.873Z,25.67
2018-02-21T01:11:11.313Z,20.52
2018-02-21T01:13:39.779Z,21.02
2018-02-21T01:16:08.433Z,22.55
2018-02-21T01:18:36.965Z,20.77
2018-02-21T01:21:05.893Z,22.55
2018-02-21T01:23:34.763Z,21.80
2018-02-21T01:26:03.346Z,24.23
2018-02-21T01:28:31.799Z,23.52
2018-02-21T01:31:00.445Z,21.67
2018-02-21T01:33:29.008Z,22.33
2018-02-21T01:35:58.499Z,23.45
2018-02-21T01:38:27.135Z,28.33
2018-02-21T01:40:55.687Z,24.48
2018-02-21T01:43:24.148Z,26.17
2018-02-21T01:45:52.656Z,20.33
2018-02-21T01:48:21.338Z,23.15
2018-02-21T01:50:52.820Z,23.45
2018-02-21T01:53:21.906Z,31.27
2018-02-21T01:55:50.421Z,21.65
2018-02-21T01:58:18.997Z,24.80
2018-02-21T02:00:47.626Z,21.58
2018-02-21T02:03:16.124Z,26.27
2018-02-21T02:05:44.612Z,26.87
2018-02-21T02:08:13.143Z,26.35
2018-02-21T02:10:41.678Z,22.73
2018-02-21T02:13:10.138Z,24.08
2018-02-21T02:15:39.136Z,23.45
2018-02-21T02:18:07.719Z,19.90
2018-02-21T02:20:36.215Z,22.05
2018-02-21T02:23:04.888Z,26.20
2018-02-21T02:25:33.464Z,24.48
2018-02-21T02:28:01.952Z,27.25
2018-02-21T02:30:30.805Z,26.52
2018-02-21T02:32:59.310Z,21.25
2018-02-21T02:35:27.858Z,23.02
2018-02-21T02:37:56.370Z,22.30
2018-02-21T02:40:24.823Z,24.55
2018-02-21T02:42:53.371Z,24.15
2018-02-21T02:45:21.876Z,20.00
2018-02-21T02:47:50.350Z,20.25
2018-02-21T02:50:18.791Z,18.67
2018-02-21T02:52:48.425Z,26.67
2018-02-21T02:55:16.919Z,23.42
2018-02-21T02:57:45.696Z,19.30
2018-02-21T03:00:15.011Z,26.02
2018-02-21T03:02:43.496Z,18.70
2018-02-21T03:05:11.971Z,21.00
2018-02-21T03:07:40.699Z,17.12
2018-02-21T03:10:09.168Z,18.77
2018-02-21T03:12:37.881Z,17.98
2018-02-21T03:15:07.516Z,22.40
2018-02-21T03:17:35.992Z,21.12
2018-02-21T03:20:04.665Z,21.73
2018-02-21T03:22:34.154Z,22.83
2018-02-21T03:25:02.636Z,21.23
2018-02-21T03:27:31.161Z,24.12
2018-02-21T03:30:02.106Z,22.02
2018-02-21T03:32:30.557Z,22.73
2018-02-21T03:34:59.050Z,23.17
2018-02-21T03:37:27.575Z,28.38
2018-02-21T03:39:56.114Z,23.95
2018-02-21T03:42:24.621Z,20.73
2018-02-21T03:44:53.153Z,18.27
2018-02-21T03:47:21.601Z,24.73
2018-02-21T03:49:50.123Z,23.62
2018-02-21T03:52:20.200Z,17.52
2018-02-21T03:54:48.781Z,18.58
2018-02-21T03:57:17.277Z,18.73
2018-02-21T03:59:45.747Z,23.33
2018-02-21T04:02:14.199Z,24.45
2018-02-21T04:04:42.625Z,22.00
2018-02-21T04:07:11.625Z,20.42
2018-02-21T04:09:40.174Z,20.45
2018-02-21T04:12:08.702Z,18.95
2018-02-21T04:14:39.443Z,29.63
2018-02-21T04:17:07.970Z,20.77
2018-02-21T04:19:36.556Z,23.12
2018-02-21T04:22:06.083Z,19.15
2018-02-21T04:24:34.754Z,20.58
2018-02-21T04:27:03.224Z,19.75
2018-02-21T04:29:32.261Z,22.83
2018-02-21T04:32:00.720Z,21.10
2018-02-21T04:34:29.151Z,23.70
2018-02-21T04:36:58.531Z,21.62
2018-02-21T04:39:27.056Z,27.08
2018-02-21T04:41:55.968Z,21.33
2018-02-21T04:44:24.900Z,24.90
2018-02-21T04:46:53.380Z,24.12
2018-02-21T04:49:21.863Z,25.40
2018-02-21T04:51:51.178Z,22.40
2018-02-21T04:57:35.689Z,21.05
2018-02-21T05:00:20.029Z,20.85
2018-02-21T05:02:49.469Z,20.25
2018-02-21T05:05:17.937Z,19.92
2018-02-21T05:07:46.433Z,24.00
2018-02-21T05:10:15.488Z,19.98
2018-02-21T05:12:44.045Z,27.25
2018-02-21T05:15:12.504Z,22.15
2018-02-21T05:17:41.292Z,22.70
2018-02-21T05:20:09.808Z,24.67
2018-02-21T05:22:38.313Z,25.75
2018-02-21T05:25:07.024Z,25.33
2018-02-21T05:27:35.556Z,31.23
2018-02-21T05:30:04.216Z,31.58
2018-02-21T05:32:32.746Z,23.20
2018-02-21T05:35:01.187Z,24.85
2018-02-21T05:37:29.685Z,25.90
2018-02-21T05:39:58.259Z,24.20
2018-02-21T05:42:26.708Z,22.50
2018-02-21T05:44:55.173Z,23.80
2018-02-21T05:47:23.881Z,22.70
2018-02-21T05:49:52.321Z,21.17
2018-02-21T05:52:20.842Z,26.42
2018-02-21T05:54:49.390Z,26.42
2018-02-21T05:57:17.850Z,22.52
2018-02-21T05:59:46.288Z,32.60
2018-02-21T06:02:15.148Z,29.12
2018-02-21T06:04:43.655Z,25.83
2018-02-21T06:07:12.296Z,23.38
2018-02-21T06:09:40.908Z,27.87
2018-02-21T06:12:09.617Z,35.67
2018-02-21T06:14:38.075Z,26.08
2018-02-21T06:17:08.047Z,29.12
2018-02-21T06:19:37.299Z,30.27
2018-02-21T06:22:05.910Z,40.10
2018-02-21T06:24:35.182Z,26.62
2018-02-21T06:27:05.359Z,27.85
2018-02-21T06:29:34.027Z,30.52
2018-02-21T06:32:04.352Z,28.10
2018-02-21T06:34:34.042Z,33.70
2018-02-21T06:37:02.834Z,30.15
2018-02-21T06:39:33.994Z,33.97
2018-02-21T06:42:06.778Z,33.10
2018-02-21T06:44:36.438Z,36.33
2018-02-21T06:47:05.278Z,28.15
2018-02-21T06:49:33.927Z,28.20
2018-02-21T06:52:03.354Z,36.53
2018-02-21T06:54:32.008Z,29.25
2018-02-21T06:57:01.815Z,31.55
2018-02-21T06:59:30.642Z,28.70
2018-02-21T07:01:59.677Z,24.00
2018-02-21T07:04:28.625Z,24.45
2018-02-21T07:06:57.310Z,28.00
2018-02-21T07:09:25.968Z,25.55
2018-02-21T07:11:59.860Z,27.80
2018-02-21T07:14:29.204Z,32.22
2018-02-21T07:16:57.666Z,28.17
2018-02-21T07:19:26.261Z,32.03
2018-02-21T07:21:54.934Z,37.00
2018-02-21T07:24:23.441Z,28.42
2018-02-21T07:26:51.898Z,39.67
2018-02-21T07:29:20.417Z,34.53
2018-02-21T07:31:48.933Z,35.20
2018-02-21T07:34:17.378Z,33.13
2018-02-21T07:36:45.958Z,39.50
2018-02-21T07:39:14.410Z,32.88
2018-02-21T07:41:42.875Z,29.83
2018-02-21T07:44:11.483Z,31.37
2018-02-21T07:46:40.095Z,37.40
2018-02-21T07:49:08.675Z,37.45
2018-02-21T07:51:37.796Z,29.15
2018-02-21T07:54:06.307Z,37.35
2018-02-21T07:56:34.861Z,41.47
2018-02-21T07:59:04.284Z,35.00
2018-02-21T08:01:32.945Z,28.35
2018-02-21T08:04:01.526Z,29.73
2018-02-21T08:06:30.816Z,29.50
2018-02-21T08:08:59.289Z,33.58
2018-02-21T08:11:27.767Z,31.35
2018-02-21T08:13:56.294Z,42.70
2018-02-21T08:16:24.850Z,33.88
2018-02-21T08:18:53.368Z,30.60
2018-02-21T08:21:22.827Z,28.95
2018-02-21T08:23:51.311Z,29.17
2018-02-21T08:26:19.827Z,39.85
2018-02-21T08:28:48.356Z,26.25
2018-02-21T08:31:16.890Z,29.45
2018-02-21T08:33:45.341Z,23.33
2018-02-21T08:36:14.474Z,22.70
2018-02-21T08:38:43.036Z,31.37
2018-02-21T08:41:11.529Z,21.77
2018-02-21T08:43:40.305Z,20.17
2018-02-21T08:46:08.769Z,24.27
2018-02-21T08:48:37.246Z,25.67
2018-02-21T08:51:06.666Z,18.83
2018-02-21T08:53:35.452Z,22.50
2018-02-21T08:56:03.985Z,18.85
2018-02-21T08:58:35.184Z,22.58
2018-02-21T09:01:03.706Z,26.55
2018-02-21T09:03:32.157Z,19.52
2018-02-21T09:06:01.539Z,23.83
2018-02-21T09:08:30.021Z,22.55
2018-02-21T09:10:58.538Z,17.42
2018-02-21T09:13:27.100Z,16.05
2018-02-21T09:15:55.570Z,22.62
2018-02-21T09:18:24.078Z,24.90
2018-02-21T09:20:53.276Z,23.50
2018-02-21T09:23:21.886Z,27.25
2018-02-21T09:25:50.342Z,23.33
2018-02-21T09:28:18.861Z,21.12
2018-02-21T09:30:47.323Z,19.70
2018-02-21T09:33:15.785Z,25.42
2018-02-21T09:35:44.362Z,18.10
2018-02-21T09:38:12.914Z,25.37
2018-02-21T09:40:41.472Z,23.67
2018-02-21T09:43:10.178Z,20.20
2018-02-21T09:45:39.607Z,27.10
2018-02-21T09:48:08.334Z,18.95
2018-02-21T09:50:36.846Z,24.15
2018-02-21T09:53:05.470Z,21.40
2018-02-21T09:55:34.156Z,14.25
2018-02-21T09:58:03.151Z,13.77
2018-02-21T10:00:31.751Z,14.00
2018-02-21T10:03:00.245Z,20.65
2018-02-21T10:05:28.773Z,12.80
2018-02-21T10:07:57.216Z,7.87
2018-02-21T10:10:25.900Z,10.43
2018-02-21T10:12:54.400Z,18.60
2018-02-21T10:15:23.547Z,11.10
2018-02-21T10:17:52.723Z,11.70
2018-02-21T10:20:21.515Z,17.58
2018-02-21T10:22:49.964Z,23.90
2018-02-21T10:25:18.407Z,24.33
2018-02-21T10:27:46.953Z,19.95
2018-02-21T10:30:15.408Z,18.50
2018-02-21T10:32:43.897Z,22.30
2018-02-21T10:35:12.986Z,19.35
2018-02-21T10:37:41.578Z,20.88
2018-02-21T10:40:10.243Z,22.48
2018-02-21T10:42:39.156Z,18.92
2018-02-21T10:45:09.640Z,18.37
2018-02-21T10:47:38.321Z,21.55
2018-02-21T10:50:06.998Z,23.23
2018-02-21T10:52:35.480Z,28.15
2018-02-21T10:55:04.071Z,15.95
2018-02-21T10:57:32.919Z,30.08
2018-02-21T11:00:01.495Z,22.45
2018-02-21T11:02:29.946Z,19.30
2018-02-21T11:04:58.786Z,29.25
2018-02-21T11:07:27.241Z,23.27
2018-02-21T11:09:55.728Z,35.17
2018-02-21T11:12:24.279Z,21.05
2018-02-21T11:14:52.757Z,23.73
2018-02-21T11:17:22.336Z,18.95
2018-02-21T11:19:51.607Z,23.98
2018-02-21T11:22:20.093Z,23.43
2018-02-21T11:24:49.167Z,25.40
2018-02-21T11:27:17.997Z,15.32
2018-02-21T11:29:46.476Z,20.73
2018-02-21T11:32:14.934Z,29.20
2018-02-21T11:34:43.662Z,24.48
2018-02-21T11:37:12.266Z,21.30
2018-02-21T11:39:40.894Z,25.12
2018-02-21T11:42:10.106Z,31.87
2018-02-21T11:44:38.824Z,28.00
2018-02-21T11:47:07.450Z,26.90
2018-02-21T11:49:36.297Z,28.55
2018-02-21T11:52:04.895Z,28.65
2018-02-21T11:54:33.410Z,25.60
2018-02-21T11:57:02.470Z,31.08
2018-02-21T11:59:30.975Z,30.30
2018-02-21T12:01:59.448Z,24.15
2018-02-21T12:04:28.003Z,30.40
2018-02-21T12:06:56.492Z,30.42
2018-02-21T12:09:24.944Z,34.75
2018-02-21T12:11:53.866Z,28.02
2018-02-21T12:14:22.322Z,31.77
2018-02-21T12:16:50.821Z,30.73
2018-02-21T12:19:19.325Z,32.60
2018-02-21T12:21:47.788Z,31.10
2018-02-21T12:24:16.236Z,36.90
2018-02-21T12:26:44.947Z,25.98
2018-02-21T12:29:13.502Z,27.48
2018-02-21T12:31:42.554Z,31.45
2018-02-21T12:34:11.282Z,24.35
2018-02-21T12:36:40.075Z,28.62
2018-02-21T12:39:14.227Z,29.20
2018-02-21T12:41:43.595Z,26.62
2018-02-21T12:44:12.111Z,25.67
2018-02-21T12:46:40.766Z,28.25
2018-02-21T12:49:09.512Z,31.02
2018-02-21T12:51:38.117Z,32.92
2018-02-21T12:54:06.820Z,35.00
2018-02-21T12:56:35.470Z,28.95
2018-02-21T12:59:04.399Z,29.10
2018-02-21T13:01:33.304Z,33.40
2018-02-21T13:04:01.788Z,35.95
2018-02-21T13:06:30.394Z,36.58
2018-02-21T13:08:59.795Z,32.65
2018-02-21T13:11:28.374Z,36.17
2018-02-21T13:13:56.979Z,34.00
2018-02-21T13:16:26.047Z,32.22
2018-02-21T13:18:54.608Z,24.95
2018-02-21T13:21:23.081Z,28.00
2018-02-21T13:23:52.099Z,30.48
2018-02-21T13:26:20.588Z,32.67
2018-02-21T13:28:49.083Z,36.97
2018-02-21T13:31:17.595Z,34.47
2018-02-21T13:33:46.121Z,28.25
2018-02-21T13:36:14.576Z,27.17
2018-02-21T13:38:43.521Z,30.27
2018-02-21T13:41:12.391Z,29.98
2018-02-21T13:43:40.973Z,25.80
2018-02-21T13:46:09.799Z,33.90
2018-02-21T13:48:38.314Z,26.55
2018-02-21T13:51:06.929Z,27.90
2018-02-21T13:53:35.789Z,24.27
2018-02-21T13:56:04.341Z,37.35
2018-02-21T13:58:32.854Z,21.92
2018-02-21T14:01:01.458Z,27.23
2018-02-21T14:03:30.748Z,33.35
2018-02-21T14:05:59.274Z,32.20
2018-02-21T14:08:27.875Z,22.13
2018-02-21T14:10:56.389Z,20.02
2018-02-21T14:13:24.891Z,23.25
2018-02-21T14:15:54.145Z,27.00
2018-02-21T14:18:22.688Z,31.15
2018-02-21T14:20:51.169Z,23.00
2018-02-21T14:23:19.753Z,30.65
2018-02-21T14:25:48.247Z,21.58
2018-02-21T14:28:16.712Z,34.08
2018-02-21T14:30:45.280Z,30.65
2018-02-21T14:33:13.934Z,25.20
2018-02-21T14:35:42.520Z,20.52
2018-02-21T14:38:11.142Z,19.77
2018-02-21T14:40:39.616Z,19.30
2018-02-21T14:43:08.230Z,27.62
2018-02-21T14:45:36.817Z,25.17
2018-02-21T14:48:05.458Z,32.28
2018-02-21T14:50:34.008Z,27.67
2018-02-21T14:53:02.795Z,34.28
2018-02-21T14:55:31.283Z,33.63
2018-02-21T14:57:59.880Z,28.55
2018-02-21T15:00:28.791Z,31.65
2018-02-21T15:02:57.391Z,29.25
2018-02-21T15:05:25.857Z,29.45
2018-02-21T15:07:55.321Z,27.58
2018-02-21T15:10:23.934Z,30.27
2018-02-21T15:12:52.457Z,30.77
2018-02-21T15:15:21.869Z,31.67
2018-02-21T15:17:50.598Z,30.15
2018-02-21T15:20:19.133Z,34.85
2018-02-21T15:22:48.536Z,35.30
2018-02-21T15:25:17.007Z,30.17
2018-02-21T15:27:45.479Z,29.00
2018-02-21T15:30:15.201Z,32.90
2018-02-21T15:32:43.833Z,26.45
2018-02-21T15:35:12.723Z,28.00
2018-02-21T15:37:42.162Z,25.50
2018-02-21T15:40:10.757Z,32.05
2018-02-21T15:42:39.607Z,33.42
2018-02-21T15:45:08.172Z,29.30
2018-02-21T15:47:36.718Z,23.77
2018-02-21T15:50:05.414Z,27.60
2018-02-21T15:52:35.084Z,36.03
2018-02-21T15:55:03.809Z,25.37
2018-02-21T15:57:32.266Z,32.13
2018-02-21T16:00:01.631Z,28.58
2018-02-21T16:02:30.122Z,25.17
2018-02-21T16:04:58.635Z,27.52
2018-02-21T16:07:27.158Z,29.33
2018-02-21T16:09:55.646Z,25.30
2018-02-21T16:12:24.889Z,24.00
2018-02-21T16:14:53.824Z,25.20
2018-02-21T16:17:22.249Z,25.00
2018-02-21T16:19:50.712Z,27.27
2018-02-21T16:22:20.022Z,28.58
2018-02-21T16:24:48.526Z,28.48
2018-02-21T16:27:17.144Z,27.95
2018-02-21T16:29:46.412Z,25.52
2018-02-21T16:32:15.141Z,35.38
2018-02-21T16:34:43.795Z,28.70
2018-02-21T16:37:12.593Z,35.97
2018-02-21T16:39:41.267Z,36.67
2018-02-21T16:42:10.131Z,30.52
2018-02-21T16:44:39.159Z,35.03
2018-02-21T16:47:08.070Z,30.50
2018-02-21T16:49:37.858Z,28.33
2018-02-21T16:52:07.746Z,37.33
2018-02-21T16:54:36.845Z,35.70
2018-02-21T16:57:05.729Z,34.28
2018-02-21T16:59:35.289Z,44.10
2018-02-21T17:02:04.030Z,34.80
2018-02-21T17:04:32.586Z,47.47
2018-02-21T17:07:01.165Z,41.80
2018-02-21T17:09:29.779Z,34.80
2018-02-21T17:11:58.333Z,34.40
2018-02-21T17:14:27.460Z,50.50
2018-02-21T17:16:56.013Z,35.28
2018-02-21T17:19:25.270Z,48.70
2018-02-21T17:21:54.386Z,53.10
2018-02-21T17:24:22.848Z,46.65
2018-02-21T17:26:51.431Z,41.30
2018-02-21T17:29:20.628Z,44.10
2018-02-21T17:31:49.164Z,36.88
2018-02-21T17:34:18.634Z,39.65
2018-02-21T17:36:54.761Z,38.85
2018-02-21T17:39:23.293Z,33.40
2018-02-21T17:41:51.790Z,33.70
2018-02-21T17:44:20.968Z,37.10
2018-02-21T17:46:49.481Z,35.53
2018-02-21T17:49:17.934Z,36.15
2018-02-21T17:51:46.574Z,45.22
2018-02-21T17:54:15.307Z,43.65
2018-02-21T17:56:43.940Z,32.78
2018-02-21T17:59:13.287Z,33.20
2018-02-21T18:01:42.862Z,35.00
2018-02-21T18:04:11.958Z,42.15
2018-02-21T18:06:40.957Z,43.58
2018-02-21T18:09:09.648Z,42.13
2018-02-21T18:11:38.894Z,37.88
2018-02-21T18:14:08.231Z,43.90
2018-02-21T18:16:37.097Z,40.80
2018-02-21T18:19:06.319Z,36.28
2018-02-21T18:21:41.001Z,36.17
2018-02-21T18:24:10.891Z,39.50
2018-02-21T18:26:39.618Z,40.30
2018-02-21T18:29:09.491Z,41.35
2018-02-21T18:31:38.812Z,47.97
2018-02-21T18:34:08.652Z,57.67
2018-02-21T18:36:37.636Z,48.55
2018-02-21T18:39:06.825Z,63.20
2018-02-21T18:41:35.768Z,42.90
2018-02-21T18:44:04.460Z,51.40
2018-02-21T18:46:33.184Z,50.70
2018-02-21T18:49:01.661Z,46.08
2018-02-21T18:51:30.210Z,49.45
2018-02-21T18:53:58.889Z,45.12
2018-02-21T18:56:27.527Z,38.75
2018-02-21T18:58:56.133Z,54.95
2018-02-21T19:01:24.635Z,44.33
2018-02-21T19:03:54.622Z,39.47
2018-02-21T19:06:23.195Z,48.17
2018-02-21T19:08:51.720Z,42.22
2018-02-21T19:11:20.532Z,47.13
2018-02-21T19:13:50.327Z,41.50
2018-02-21T19:16:19.181Z,45.55
2018-02-21T19:18:47.897Z,37.65
2018-02-21T19:21:18.695Z,47.00
2018-02-21T19:23:47.831Z,43.17
2018-02-21T19:26:17.392Z,37.58
2018-02-21T19:28:46.243Z,53.53
2018-02-21T19:31:20.574Z,38.88
2018-02-21T19:33:49.467Z,38.92
2018-02-21T19:36:18.148Z,43.63
2018-02-21T19:38:46.817Z,38.20
2018-02-21T19:41:15.561Z,46.03
2018-02-21T19:43:44.131Z,50.53
2018-02-21T19:46:12.826Z,40.12
2018-02-21T19:48:41.695Z,46.25
2018-02-21T19:51:10.306Z,47.97
2018-02-21T19:53:39.270Z,45.10
2018-02-21T19:56:09.401Z,46.45
2018-02-21T19:58:44.716Z,59.63
2018-02-21T20:01:14.227Z,66.05
2018-02-21T20:03:44.074Z,92.93
2018-02-21T20:06:13.134Z,97.07
2018-02-21T20:08:44.040Z,67.03
2018-02-21T20:11:18.209Z,59.67
2018-02-21T20:13:48.091Z,68.50
2018-02-21T20:16:16.627Z,62.55
2018-02-21T20:18:45.210Z,63.85
2018-02-21T20:21:15.849Z,57.88
2018-02-21T20:23:45.214Z,54.65
2018-02-21T20:26:15.365Z,58.13
2018-02-21T20:28:44.842Z,53.47
2018-02-21T20:31:14.688Z,51.25
2018-02-21T20:33:44.152Z,55.63
2018-02-21T20:36:15.432Z,49.03
2018-02-21T20:38:54.228Z,70.65
2018-02-21T20:41:28.530Z,75.25
2018-02-21T20:43:58.378Z,60.12
2018-02-21T20:46:35.983Z,57.08
2018-02-21T20:49:07.469Z,67.40
2018-02-21T20:51:36.155Z,65.62
2018-02-21T20:54:04.942Z,60.97
2018-02-21T20:56:33.469Z,59.20
2018-02-21T20:59:02.060Z,63.33
2018-02-21T21:01:30.582Z,55.80
2018-02-21T21:03:59.038Z,54.83
2018-02-21T21:06:28.553Z,65.50
2018-02-21T21:08:57.055Z,63.72
2018-02-21T21:11:25.556Z,77.57
2018-02-21T21:13:54.373Z,66.57
2018-02-21T21:16:22.933Z,70.37
2018-02-21T21:18:51.969Z,61.15
2018-02-21T21:21:21.560Z,67.60
2018-02-21T21:23:49.808Z,72.80
2018-02-21T21:26:18.497Z,66.55
2018-02-21T21:28:48.499Z,66.37
2018-02-21T21:31:17.392Z,70.80
2018-02-21T21:33:46.720Z,68.35
2018-02-21T21:36:16.514Z,72.45
2018-02-21T21:38:45.446Z,69.65
2018-02-21T21:41:14.132Z,59.97
2018-02-21T21:43:43.497Z,65.80
2018-02-21T21:46:12.818Z,70.37
2018-02-21T21:48:41.557Z,65.90
2018-02-21T21:51:10.683Z,66.32
2018-02-21T21:53:39.681Z,60.42
2018-02-21T21:56:08.666Z,63.33
2018-02-21T21:58:37.266Z,63.70
2018-02-21T22:01:05.983Z,56.90
2018-02-21T22:03:34.873Z,66.18
2018-02-21T22:06:06.229Z,56.00
2018-02-21T22:08:35.893Z,56.90
2018-02-21T22:11:04.987Z,58.85
2018-02-21T22:13:34.513Z,61.67
2018-02-21T22:16:03.202Z,56.20
2018-02-21T22:18:32.246Z,59.95
2018-02-21T22:21:00.886Z,69.07
2018-02-21T22:23:29.537Z,65.95
2018-02-21T22:25:58.053Z,64.28
2018-02-21T22:28:26.813Z,73.85
2018-02-21T22:30:55.293Z,64.85
2018-02-21T22:33:23.811Z,62.25
2018-02-21T22:35:52.860Z,56.55
2018-02-21T22:38:21.360Z,62.42
2018-02-21T22:40:49.929Z,59.85
2018-02-21T22:43:18.448Z,63.00
2018-02-21T22:45:47.010Z,56.72
2018-02-21T22:48:15.775Z,60.42
2018-02-21T22:50:44.445Z,63.63
2018-02-21T22:53:13.071Z,63.20
2018-02-21T22:55:41.862Z,65.80
2018-02-21T22:58:10.723Z,57.58
2018-02-21T23:00:40.637Z,65.93
2018-02-21T23:03:09.267Z,53.78
2018-02-21T23:05:39.033Z,62.83
2018-02-21T23:08:07.609Z,60.53
2018-02-21T23:10:36.333Z,65.10
2018-02-21T23:13:06.218Z,59.10
2018-02-21T23:15:34.828Z,55.72
2018-02-21T23:18:03.820Z,58.20
2018-02-21T23:20:33.530Z,52.55
2018-02-21T23:23:02.228Z,59.28
2018-02-21T23:25:30.718Z,57.70
2018-02-21T23:28:01.023Z,55.38
2018-02-21T23:30:29.660Z,53.08
2018-02-21T23:32:58.592Z,59.05
2018-02-21T23:35:27.169Z,60.17
2018-02-21T23:37:55.709Z,51.67
2018-02-21T23:40:24.231Z,51.95
2018-02-21T23:42:52.781Z,54.78
2018-02-21T23:45:21.262Z,48.60
2018-02-21T23:47:49.843Z,55.55
2018-02-21T23:50:19.353Z,52.90
2018-02-21T23:52:47.841Z,53.50
2018-02-21T23:55:16.329Z,49.20
2018-02-21T23:57:45.381Z,55.75
